^^
Datos históricos de la estación: Murcia-Puente Tocinos
Diario Informe para Octubre 22, 2019 Unidades:  Métrico    Ingés   Ambas
Diario Semanal Mensual Anual
  Máxima: Mínima: Promedio:
Temperatura: 16.7 °C 12.8 °C 13.8 °C
Punto de rocio: 13.1 °C 10.4 °C 11.8 °C
Humedad: 95% 71.8% 88%
Velocidad viento: 14.8km/h 0km/h 7.9km/h
Racha viento: 27.8km/h - -
Viento- - SSO
Presión: 1015.3 hPa 1006.1 hPa -
Precipitación: 22.3 mm    
 
 
Tabla de datos para Octubre 22, 2019
Hora Temperatura Punto de rocio Presión Viento Velocidad viento Racha viento Humedad Intensidad lluvia(por hora) Nubes
00:04 16.7 °C 11.6 °C 1015.3 hPa ESE 1 km/h 5.8 km/h 71.8% 0.0 mm
00:09 16.6 °C 11.6 °C 1015.3 hPa Calm   7.4 km/h 72% 0.0 mm
00:14 16.5 °C 11.5 °C 1014.9 hPa ENE 2.1 km/h 8 km/h 72% 0.0 mm
00:19 16.4 °C 11.4 °C 1014.9 hPa ENE 3.2 km/h   72.1% 0.0 mm
00:24 16.4 °C 11.6 °C 1014.9 hPa ENE 1.1 km/h 3.9 km/h 73% 0.0 mm
00:29 16.4 °C 11.7 °C 1014.8 hPa Calm   7.4 km/h 73.9% 0.0 mm
00:34 16.3 °C 11.8 °C 1014.8 hPa NNO 1.9 km/h 8 km/h 75% 0.0 mm
00:39 16.2 °C 11.8 °C 1014.8 hPa North 2.9 km/h 8.7 km/h 75.3% 0.0 mm
00:44 16 °C 11.8 °C 1014.3 hPa NNE 4.1 km/h 9.7 km/h 76% 0.0 mm
00:49 15.8 °C 11.6 °C 1014.3 hPa NNE 4.7 km/h 8 km/h 76% 0.0 mm
00:54 15.8 °C 11.6 °C 1014.3 hPa NNE 4.1 km/h 8 km/h 76% 0.0 mm
00:59 15.8 °C 11.5 °C 1014.0 hPa NNE 3.9 km/h 8 km/h 76% 0.0 mm
01:04 15.8 °C 11.6 °C 1014.0 hPa NNE 3.4 km/h 6.4 km/h 76% 0.0 mm
01:09 15.8 °C 11.4 °C 1014.0 hPa NNE 3.2 km/h 4.7 km/h 75.3% 0.0 mm
01:14 15.8 °C 11.4 °C 1013.9 hPa NNE 1.2 km/h 6.4 km/h 75% 0.0 mm
01:19 15.8 °C 11.6 °C 1013.9 hPa Calm   8.4 km/h 75.7% 0.0 mm
01:24 15.9 °C 11.5 °C 1014.1 hPa SSE 3.4 km/h 9.3 km/h 75.2% 0.0 mm
01:29 15.9 °C 11.6 °C 1014.1 hPa SSE 5 km/h 11.1 km/h 75.5% 0.0 mm
01:34 15.9 °C 11.6 °C 1014.1 hPa SSE 6.2 km/h 11.3 km/h 75.9% 0.0 mm
01:39 15.9 °C 11.4 °C 1014.2 hPa SSE 6.9 km/h 10 km/h 74.9% 0.0 mm
01:44 15.9 °C 11.3 °C 1014.2 hPa SSE 6.6 km/h 9.7 km/h 73.9% 0.0 mm
01:49 15.9 °C 11.1 °C 1014.2 hPa SSE 6.5 km/h 9.7 km/h 73% 0.0 mm
01:54 15.9 °C 11.1 °C 1014.2 hPa Sur 6.5 km/h 9.7 km/h 73% 0.0 mm
01:59 15.9 °C 11.1 °C 1014.2 hPa SO 6.5 km/h 9.7 km/h 73.2% 0.0 mm
02:04 15.9 °C 11.2 °C 1014.2 hPa SO 5.5 km/h 8 km/h 73.8% 0.0 mm
02:09 15.9 °C 11.3 °C 1014.2 hPa OSO 5 km/h 8 km/h 74% 0.0 mm
02:14 15.9 °C 11.3 °C 1014.0 hPa OSO 4.2 km/h 8 km/h 74.3% 0.0 mm
02:19 15.8 °C 11.4 °C 1014.0 hPa OSO 3.9 km/h 8 km/h 75.1% 0.0 mm
02:24 15.7 °C 11.6 °C 1014.0 hPa Oeste 4.4 km/h 8 km/h 76.5% 0.0 mm
02:29 15.7 °C 11.8 °C 1013.7 hPa OSO 4.7 km/h 6.4 km/h 77.8% 0.0 mm
02:34 15.5 °C 11.7 °C 1013.7 hPa ONO 3.5 km/h 7.4 km/h 78% 0.0 mm
02:39 15.3 °C 11.6 °C 1013.7 hPa NE 2.9 km/h 9.5 km/h 78.5% 0.3 mm
02:44 15.2 °C 11.8 °C 1012.6 hPa ENE 4.8 km/h 9.7 km/h 80% 0.3 mm
02:49 15.2 °C 12 °C 1012.6 hPa ESE 5.8 km/h 9.7 km/h 81.6% 0.3 mm
02:54 15 °C 12.1 °C 1012.6 hPa ESE 5.2 km/h 9.7 km/h 82.5% 0.3 mm
02:59 14.9 °C 12.1 °C 1012.4 hPa SO 5 km/h 11.1 km/h 83% 0.3 mm
03:04 14.8 °C 12 °C 1012.4 hPa SO 6 km/h 13 km/h 83.4% 0.3 mm
03:09 14.8 °C 12.1 °C 1013.3 hPa OSO 6.5 km/h 12.9 km/h 84% 0.3 mm
03:14 14.8 °C 12.1 °C 1013.3 hPa OSO 7.2 km/h 11.3 km/h 84% 0.3 mm
03:19 14.8 °C 12 °C 1013.3 hPa OSO 7.6 km/h 13.7 km/h 83.2% 0.3 mm
03:24 14.7 °C 11.9 °C 1013.3 hPa OSO 8.1 km/h 14.5 km/h 83.5% 0.5 mm
03:29 14.7 °C 12.1 °C 1012.8 hPa OSO 8.4 km/h 12.9 km/h 84.5% 0.8 mm
03:34 14.6 °C 12.2 °C 1012.8 hPa Oeste 7.4 km/h 14.8 km/h 85.7% 1.0 mm
03:39 14.6 °C 12.3 °C 1012.8 hPa North 6.9 km/h 14.5 km/h 86% 1.0 mm
03:44 14.5 °C 12.3 °C 1012.3 hPa NNE 5.7 km/h 11.3 km/h 86.8% 1.0 mm
03:49 14.4 °C 12.3 °C 1012.3 hPa NNE 5 km/h 6.4 km/h 87% 1.0 mm
03:54 14.4 °C 12.5 °C 1012.5 hPa ESE 3.6 km/h 8.4 km/h 87.9% 1.0 mm
03:59 14.5 °C 12.6 °C 1012.5 hPa Este 2.9 km/h 8.7 km/h 88% 1.0 mm
04:04 14.4 °C 12.5 °C 1012.5 hPa ESE 4.9 km/h 13.7 km/h 88.2% 1.0 mm
04:09 14.3 °C 12.5 °C 1012.5 hPa ESE 5.8 km/h 14.5 km/h 89% 1.2 mm
04:14 14.2 °C 12.5 °C 1011.9 hPa ESE 6.5 km/h 10 km/h 89.4% 1.5 mm
04:19 14.2 °C 12.6 °C 1011.9 hPa ESE 6.9 km/h 9.7 km/h 90% 1.7 mm
04:24 14.2 °C 12.7 °C 1012.0 hPa Este 5.6 km/h 8 km/h 90.7% 2.0 mm
04:29 14.2 °C 12.8 °C 1012.0 hPa Este 5 km/h 8 km/h 91% 1.8 mm
04:34 14.2 °C 12.8 °C 1012.0 hPa ONO 3.8 km/h 8 km/h 91% 1.6 mm
04:39 14.2 °C 12.8 °C 1012.0 hPa ONO 3.2 km/h 11.1 km/h 91.2% 1.8 mm
04:44 14.2 °C 12.9 °C 1011.7 hPa Oeste 3.6 km/h 11.3 km/h 91.8% 1.5 mm
04:49 14.2 °C 12.9 °C 1011.7 hPa OSO 3.9 km/h 8 km/h 92% 1.8 mm
04:54 14.2 °C 12.9 °C 1011.8 hPa SO 3.9 km/h 8 km/h 92% 1.8 mm
04:59 14.2 °C 12.9 °C 1011.8 hPa SSE 3.9 km/h 7.4 km/h 92% 1.8 mm
05:04 14.2 °C 13 °C 1011.8 hPa ESE 3.9 km/h 9.5 km/h 92.3% 2.0 mm
05:09 14.2 °C 13.1 °C 1011.8 hPa ESE 3.9 km/h 9.7 km/h 92.7% 2.1 mm
05:14 14.2 °C 12.9 °C 1011.6 hPa Oeste 3.9 km/h 9.7 km/h 92% 2.1 mm
05:19 14.2 °C 12.9 °C 1011.6 hPa ONO 3.9 km/h 9.7 km/h 92% 2.1 mm
05:24 14.1 °C 12.8 °C 1011.6 hPa ONO 4.6 km/h 9.7 km/h 92% 2.1 mm
05:29 14 °C 12.8 °C 1011.1 hPa NO 5 km/h 8 km/h 92.6% 2.3 mm
05:34 13.9 °C 12.8 °C 1011.1 hPa NNE 3.8 km/h 8.4 km/h 93% 2.5 mm
05:39 13.9 °C 12.8 °C 1011.1 hPa NE 3.2 km/h 8 km/h 93% 2.6 mm
05:44 13.8 °C 12.7 °C 1010.7 hPa NE 4.4 km/h 9.3 km/h 93% 2.6 mm
05:49 13.9 °C 12.8 °C 1010.7 hPa NE 5 km/h 9.7 km/h 93.1% 2.3 mm
05:54 13.9 °C 12.8 °C 1010.8 hPa Este 3.6 km/h 7.4 km/h 93% 2.5 mm
05:59 13.9 °C 12.8 °C 1010.8 hPa ESE 2.9 km/h 8 km/h 93% 2.5 mm
06:04 13.9 °C 12.8 °C 1010.8 hPa SSO 3.6 km/h 12.2 km/h 93% 2.3 mm
06:09 13.8 °C 12.8 °C 1011.0 hPa SSO 3.9 km/h 13.7 km/h 93.3% 2.3 mm
06:14 13.9 °C 12.9 °C 1011.0 hPa SSO 6.9 km/h 14.5 km/h 94% 2.3 mm
06:19 13.9 °C 13 °C 1011.0 hPa SSO 8.7 km/h 11.3 km/h 94% 2.6 mm
06:24 14 °C 13.1 °C 1011.3 hPa SSO 7.6 km/h 13 km/h 94% 2.6 mm
06:29 13.9 °C 12.9 °C 1011.3 hPa SSO 6.9 km/h 13 km/h 94% 2.3 mm
06:34 13.9 °C 12.9 °C 1011.3 hPa SSO 7.9 km/h 14.8 km/h 94% 2.3 mm
06:39 13.8 °C 12.9 °C 1011.3 hPa SO 8.4 km/h 15.6 km/h 94% 2.6 mm
06:44 13.8 °C 12.8 °C 1011.3 hPa SO 8.6 km/h 16.1 km/h 94% 2.3 mm
06:49 13.7 °C 12.8 °C 1011.3 hPa SSO 8.7 km/h 11.3 km/h 94% 2.8 mm
06:54 13.7 °C 12.8 °C 1011.6 hPa SSO 6.8 km/h 13 km/h 94% 2.8 mm
06:59 13.6 °C 12.7 °C 1011.6 hPa SSO 5.8 km/h 13 km/h 94% 3.1 mm
07:04 13.6 °C 12.7 °C 1011.6 hPa OSO 7 km/h 12.9 km/h 94% 3.6 mm
07:09 13.5 °C 12.6 °C 1011.6 hPa OSO 7.6 km/h 14.8 km/h 94% 3.9 mm
07:14 13.4 °C 12.4 °C 1011.0 hPa OSO 8.1 km/h 14.5 km/h 94% 3.8 mm
07:19 13.4 °C 12.4 °C 1011.0 hPa SO 8.4 km/h 9.7 km/h 94% 3.9 mm
07:24 13.4 °C 12.4 °C 1011.0 hPa OSO 6 km/h 8.4 km/h 94% 3.6 mm
07:29 13.3 °C 12.3 °C 1010.8 hPa Oeste 4.7 km/h 9.5 km/h 94% 3.8 mm
07:34 13.3 °C 12.3 °C 1010.8 hPa OSO 5.4 km/h 11.1 km/h 94% 3.9 mm
07:39 13.2 °C 12.3 °C 1010.8 hPa OSO 5.8 km/h 11.9 km/h 94% 3.4 mm
07:44 13.2 °C 12.3 °C 1010.2 hPa SSO 6.2 km/h 13 km/h 94% 3.1 mm
07:49 13.2 °C 12.3 °C 1010.2 hPa SO 6.5 km/h 13 km/h 94% 3.1 mm
07:54 13.1 °C 12.2 °C 1010.6 hPa OSO 7.2 km/h 13 km/h 94% 2.8 mm
07:59 13.1 °C 12.2 °C 1010.6 hPa OSO 7.6 km/h 13.7 km/h 94% 2.6 mm
08:04 13.2 °C 12.2 °C 1010.6 hPa OSO 8.1 km/h 14.8 km/h 94% 2.3 mm
08:09 13.2 °C 12.2 °C 1010.6 hPa OSO 8.4 km/h 16.7 km/h 94% 2.1 mm
08:14 13.2 °C 12.2 °C 1010.2 hPa SO 8.6 km/h 16.1 km/h 94% 1.6 mm
08:19 13.2 °C 12.3 °C 1010.2 hPa SO 8.7 km/h 15.6 km/h 94% 1.6 mm
08:24 13.2 °C 12.3 °C 1010.5 hPa SO 8.7 km/h 16.7 km/h 94% 1.6 mm
08:29 13.2 °C 12.3 °C 1010.5 hPa SO 8.7 km/h 16.1 km/h 94% 1.5 mm
08:34 13.2 °C 12.3 °C 1010.5 hPa SO 9.2 km/h 14.8 km/h 94% 1.5 mm
08:39 13.2 °C 12.3 °C 1010.6 hPa SO 9.5 km/h 14.5 km/h 94% 1.2 mm
08:44 13.2 °C 12.3 °C 1010.6 hPa SO 9 km/h 16.7 km/h 94% 1.7 mm
08:49 13.2 °C 12.3 °C 1010.6 hPa OSO 8.7 km/h 16.1 km/h 94% 2.0 mm
08:54 13.2 °C 12.3 °C 1010.6 hPa OSO 8.5 km/h 12.9 km/h 94.5% 2.1 mm
08:59 13.2 °C 12.4 °C 1010.3 hPa OSO 8.4 km/h 13 km/h 95% 2.1 mm
09:04 13.3 °C 12.5 °C 1010.3 hPa OSO 6.6 km/h 18.5 km/h 95% 2.1 mm
09:09 13.2 °C 12.4 °C 1010.3 hPa Oeste 5.8 km/h 19.3 km/h 95% 2.0 mm
09:14 13.2 °C 12.4 °C 1010.1 hPa Oeste 8.5 km/h 19.3 km/h 95% 2.3 mm
09:19 13.2 °C 12.4 °C 1010.1 hPa OSO 10 km/h 20.4 km/h 95% 2.5 mm
09:24 13.2 °C 12.4 °C 1010.2 hPa OSO 10.2 km/h 25.6 km/h 95% 2.5 mm
09:29 13.2 °C 12.4 °C 1010.2 hPa OSO 10.3 km/h 26.2 km/h 95% 2.0 mm
09:34 13.2 °C 12.4 °C 1010.2 hPa SO 13.2 km/h 25.7 km/h 95% 2.1 mm
09:39 13.2 °C 12.4 °C 1010.3 hPa SO 14.8 km/h 24.1 km/h 95% 2.1 mm
09:44 13.2 °C 12.4 °C 1010.3 hPa SO 14.8 km/h 24.5 km/h 95% 2.0 mm
09:49 13.2 °C 12.4 °C 1010.3 hPa SSO 14.8 km/h 24.1 km/h 95% 1.8 mm
09:54 13.2 °C 12.4 °C 1011.0 hPa SSO 14.1 km/h 24.1 km/h 95% 2.0 mm
09:59 13.2 °C 12.4 °C 1011.0 hPa SSO 13.7 km/h 25.9 km/h 95% 2.0 mm
10:04 13.2 °C 12.4 °C 1011.0 hPa SSO 13.7 km/h 25.7 km/h 95% 2.3 mm
10:09 13.2 °C 12.4 °C 1011.0 hPa SO 13.7 km/h 20.9 km/h 95% 2.6 mm
10:14 13.2 °C 12.3 °C 1011.0 hPa SO 11.3 km/h 19.3 km/h 94.3% 2.6 mm
10:19 13.2 °C 12.3 °C 1011.0 hPa SO 10 km/h 19.3 km/h 94% 2.8 mm
10:24 13.2 °C 12.3 °C 1011.0 hPa SO 10.7 km/h 17.7 km/h 94% 2.8 mm
10:29 13.2 °C 12.3 °C 1011.0 hPa SO 11.1 km/h 16.7 km/h 94% 3.1 mm
10:34 13.2 °C 12.3 °C 1011.0 hPa SSO 9.5 km/h 16.1 km/h 94% 3.4 mm
10:39 13.2 °C 12.3 °C 1011.0 hPa SO 8.7 km/h 19 km/h 94% 3.1 mm
10:44 13.2 °C 12.3 °C 1010.7 hPa SO 9.5 km/h 19.3 km/h 94% 3.1 mm
10:49 13.2 °C 12.3 °C 1010.7 hPa SO 10 km/h 19.3 km/h 93.9% 3.1 mm
10:54 13.2 °C 12.1 °C 1010.7 hPa SO 10 km/h 19 km/h 93% 3.1 mm
10:59 13.2 °C 12.2 °C 1010.3 hPa SO 10 km/h 24.5 km/h 93.2% 2.9 mm
11:04 13.2 °C 12.1 °C 1010.3 hPa SO 12.1 km/h 24.5 km/h 93% 2.3 mm
11:09 13.2 °C 12.1 °C 1010.3 hPa SO 13 km/h 24.1 km/h 93% 2.0 mm
11:14 13.3 °C 12.1 °C 1010.3 hPa SO 13.7 km/h 26.2 km/h 93% 2.0 mm
11:19 13.3 °C 12.2 °C 1010.3 hPa SO 14 km/h 25.7 km/h 93% 1.8 mm
11:24 13.2 °C 12.1 °C 1010.5 hPa SO 13.8 km/h 25.9 km/h 93% 1.3 mm
11:29 13.3 °C 12.2 °C 1010.5 hPa SO 13.7 km/h 25.9 km/h 93% 1.3 mm
11:34 13.2 °C 12.1 °C 1010.5 hPa SSO 13.9 km/h 27.8 km/h 93% 1.3 mm
11:39 13.2 °C 12.1 °C 1010.5 hPa SO 14 km/h 27.4 km/h 93% 1.0 mm
11:44 13.2 °C 12.1 °C 1010.5 hPa SO 13.4 km/h 24.1 km/h 93% 1.5 mm
11:49 13.2 °C 12.1 °C 1010.5 hPa SO 13 km/h 24.5 km/h 93% 1.3 mm
11:54 13.2 °C 12.1 °C 1010.5 hPa OSO 13 km/h 24.5 km/h 93% 1.3 mm
11:59 13.2 °C 12.1 °C 1010.3 hPa OSO 13 km/h 24.1 km/h 93% 1.2 mm
12:04 13.2 °C 12.1 °C 1010.3 hPa SO 13.7 km/h 22.5 km/h 93% 1.5 mm
12:09 13.2 °C 12.1 °C 1010.3 hPa SO 14 km/h 20.9 km/h 93% 1.3 mm
12:14 13.2 °C 12 °C 1010.1 hPa SO 11.6 km/h 19.3 km/h 92.5% 1.6 mm
12:19 13.3 °C 12 °C 1010.1 hPa SO 10.3 km/h 16.7 km/h 92.2% 1.6 mm
12:24 13.3 °C 12 °C 1010.6 hPa SO 10.1 km/h 18.5 km/h 92% 1.6 mm
12:29 13.3 °C 11.9 °C 1010.6 hPa SO 10 km/h 20.4 km/h 91.4% 1.6 mm
12:34 13.4 °C 11.9 °C 1010.6 hPa SO 10.2 km/h 20.9 km/h 91% 1.5 mm
12:39 13.3 °C 11.9 °C 1010.6 hPa SO 10.3 km/h 20.1 km/h 91% 1.5 mm
12:44 13.3 °C 11.7 °C 1010.3 hPa OSO 10.8 km/h 20.9 km/h 90.3% 1.5 mm
12:49 13.3 °C 11.7 °C 1010.3 hPa SO 11.1 km/h 20.9 km/h 90% 1.0 mm
12:54 13.3 °C 11.6 °C 1010.3 hPa OSO 11.1 km/h 20.4 km/h 89.6% 1.0 mm
12:59 13.3 °C 11.5 °C 1010.2 hPa OSO 11.1 km/h 20.9 km/h 89% 0.8 mm
13:04 13.3 °C 11.5 °C 1010.2 hPa SO 11.1 km/h 19.3 km/h 89% 0.8 mm
13:09 13.3 °C 11.5 °C 1010.2 hPa SO 11.1 km/h 19 km/h 89% 0.8 mm
13:14 13.3 °C 11.5 °C 1010.1 hPa SO 10.6 km/h 19.3 km/h 89.3% 0.8 mm
13:19 13.3 °C 11.5 °C 1010.1 hPa SO 10.3 km/h 17.7 km/h 89.3% 0.5 mm
13:24 13.2 °C 11.6 °C 1010.1 hPa SO 10.1 km/h 14.8 km/h 89.8% 0.5 mm
13:29 13.3 °C 11.6 °C 1010.0 hPa SO 10 km/h 13.7 km/h 90% 0.5 mm
13:34 13.3 °C 11.6 °C 1010.0 hPa SO 7.9 km/h 14.5 km/h 90% 0.7 mm
13:39 13.2 °C 11.6 °C 1010.0 hPa SO 6.9 km/h 13 km/h 89.9% 0.5 mm
13:44 13.2 °C 11.6 °C 1009.8 hPa SO 7.4 km/h 13 km/h 89.7% 0.5 mm
13:49 13.3 °C 11.6 °C 1009.8 hPa SO 7.6 km/h 11.3 km/h 90% 0.5 mm
13:54 13.2 °C 11.5 °C 1009.8 hPa OSO 6.8 km/h 13 km/h 89.1% 0.5 mm
13:59 13.1 °C 11.3 °C 1009.6 hPa SO 6.5 km/h 12.9 km/h 88.8% 0.8 mm
14:04 13.1 °C 11.3 °C 1009.6 hPa SO 6.8 km/h 11.3 km/h 89% 0.8 mm
14:09 13.1 °C 11.3 °C 1009.6 hPa SO 6.9 km/h 13 km/h 89% 0.5 mm
14:14 13 °C 11.1 °C 1009.4 hPa SO 7.4 km/h 14.8 km/h 88.4% 1.0 mm
14:19 12.9 °C 11 °C 1009.4 hPa SO 7.6 km/h 14.5 km/h 88.2% 1.0 mm
14:24 12.8 °C 10.9 °C 1009.4 hPa SO 8.3 km/h 14.5 km/h 88% 1.0 mm
14:29 12.8 °C 11 °C 1009.2 hPa SO 8.7 km/h 14.5 km/h 88.8% 1.2 mm
14:34 12.8 °C 11.1 °C 1009.2 hPa SSO 8 km/h 16.7 km/h 89% 1.3 mm
14:39 12.8 °C 11.1 °C 1009.2 hPa SO 7.6 km/h 16.1 km/h 89% 1.6 mm
14:44 12.8 °C 11.1 °C 1009.0 hPa SO 8.1 km/h 16.1 km/h 89% 1.6 mm
14:49 12.8 °C 11.1 °C 1009.0 hPa SO 8.4 km/h 16.7 km/h 89% 1.8 mm
14:54 12.9 °C 11.1 °C 1009.0 hPa OSO 9.1 km/h 16.1 km/h 89.3% 1.8 mm
14:59 13 °C 11.4 °C 1008.3 hPa SO 9.5 km/h 14.5 km/h 90.1% 1.8 mm
15:04 13.1 °C 11.7 °C 1008.3 hPa SO 8.2 km/h 11.3 km/h 91% 1.5 mm
15:09 13.1 °C 11.6 °C 1008.3 hPa SO 7.6 km/h 14.8 km/h 90.9% 1.5 mm
15:14 13.2 °C 11.7 °C 1007.8 hPa SO 8.1 km/h 14.8 km/h 91% 1.5 mm
15:19 13 °C 11.5 °C 1007.8 hPa SO 8.4 km/h 17.2 km/h 90.2% 1.0 mm
15:24 13 °C 11.4 °C 1007.8 hPa OSO 9.6 km/h 17.7 km/h 90% 1.0 mm
15:29 13.1 °C 11.5 °C 1007.6 hPa OSO 10.3 km/h 16.1 km/h 90% 0.8 mm
15:34 13.1 °C 11.5 °C 1007.6 hPa OSO 9.2 km/h 16.4 km/h 90% 0.8 mm
15:39 13.1 °C 11.3 °C 1007.6 hPa SO 8.7 km/h 16.7 km/h 89.1% 0.5 mm
15:44 13.2 °C 11.5 °C 1007.0 hPa SO 8.7 km/h 14.8 km/h 89.8% 0.2 mm
15:49 13.2 °C 11.6 °C 1007.0 hPa SO 8.7 km/h 22.2 km/h 90% 0.2 mm
15:54 13.2 °C 11.5 °C 1007.4 hPa SSO 10.3 km/h 22.5 km/h 89.5% 0.0 mm
15:59 13.2 °C 11.4 °C 1007.4 hPa SSO 11.1 km/h 20.9 km/h 88.8% 0.0 mm
16:04 13.3 °C 11.3 °C 1007.4 hPa SSO 11.1 km/h 22.5 km/h 88% 0.0 mm
16:09 13.3 °C 11.3 °C 1007.5 hPa SSO 11.1 km/h 24.1 km/h 88% 0.0 mm
16:14 13.3 °C 11.4 °C 1007.5 hPa SSO 12.4 km/h 24.1 km/h 88% 0.0 mm
16:19 13.3 °C 11.3 °C 1007.5 hPa SSO 13 km/h 20.9 km/h 88% 0.0 mm
16:24 13.3 °C 11.3 °C 1007.5 hPa SO 12.5 km/h 19.3 km/h 88% 0.0 mm
16:29 13.3 °C 11.3 °C 1007.3 hPa OSO 12.2 km/h 19.3 km/h 88% 0.3 mm
16:34 13.3 °C 11.3 °C 1007.3 hPa SO 10.8 km/h 20.9 km/h 88% 0.3 mm
16:39 13.3 °C 11.4 °C 1007.4 hPa Sur 10 km/h 20.9 km/h 88.4% 0.3 mm
16:44 13.4 °C 11.6 °C 1007.4 hPa SO 10.2 km/h 16.1 km/h 89% 0.3 mm
16:49 13.4 °C 11.4 °C 1007.4 hPa SO 10.3 km/h 16.7 km/h 88.2% 0.3 mm
16:54 13.4 °C 11.4 °C 1007.4 hPa SSO 9.1 km/h 16.1 km/h 88% 0.3 mm
16:59 13.5 °C 11.5 °C 1007.0 hPa SSO 8.4 km/h 12.9 km/h 88% 0.3 mm
17:04 13.6 °C 11.6 °C 1007.0 hPa SSO 7.4 km/h 14.8 km/h 87.5% 0.3 mm
17:09 13.6 °C 11.4 °C 1007.2 hPa SSO 6.9 km/h 20.4 km/h 86.4% 0.3 mm
17:14 13.7 °C 11.4 °C 1007.2 hPa SSO 9.7 km/h 20.9 km/h 86% 0.3 mm
17:19 13.7 °C 11.4 °C 1007.2 hPa SSO 11.1 km/h 19.3 km/h 86% 0.3 mm
17:24 13.7 °C 11.3 °C 1007.3 hPa SSO 11.1 km/h 19.3 km/h 85.5% 0.3 mm
17:29 13.8 °C 11.4 °C 1007.3 hPa SSO 11.1 km/h 16.7 km/h 85.8% 0.0 mm
17:34 13.8 °C 11.5 °C 1007.3 hPa SSO 10 km/h 16.1 km/h 86% 0.0 mm
17:39 13.8 °C 11.4 °C 1007.3 hPa SSO 9.5 km/h 13.7 km/h 85.3% 0.0 mm
17:44 13.8 °C 11.3 °C 1007.0 hPa SSO 8.8 km/h 15.6 km/h 85% 0.0 mm
17:49 13.8 °C 11.3 °C 1007.0 hPa SSO 8.4 km/h 16.1 km/h 85% 0.0 mm
17:54 13.8 °C 11.3 °C 1007.0 hPa SSO 7.8 km/h 14.5 km/h 85% 0.0 mm
17:59 13.8 °C 11.4 °C 1006.8 hPa SSO 7.6 km/h 13.7 km/h 84.9% 0.0 mm
18:04 13.9 °C 11.3 °C 1006.8 hPa SSO 8.9 km/h 15.6 km/h 84.3% 0.0 mm
18:09 13.9 °C 11.2 °C 1006.9 hPa SSO 9.5 km/h 16.1 km/h 84% 0.0 mm
18:14 13.9 °C 11.2 °C 1006.9 hPa SSO 9.5 km/h 14.5 km/h 84% 0.0 mm
18:19 13.9 °C 11.2 °C 1006.9 hPa SSO 9.5 km/h 14.8 km/h 84% 0.0 mm
18:24 13.9 °C 11.2 °C 1006.9 hPa Sur 9 km/h 14.8 km/h 84.1% 0.0 mm
18:29 13.9 °C 11.4 °C 1006.8 hPa Sur 8.7 km/h 14.5 km/h 84.8% 0.0 mm
18:34 13.9 °C 11.4 °C 1006.8 hPa Sur 8.5 km/h 13.7 km/h 85% 0.0 mm
18:39 13.9 °C 11.4 °C 1006.9 hPa Sur 8.4 km/h 14.8 km/h 84.6% 0.0 mm
18:44 13.9 °C 11.4 °C 1006.9 hPa Sur 7.4 km/h 14.5 km/h 84.6% 0.0 mm
18:49 13.9 °C 11.4 °C 1006.9 hPa SSO 6.9 km/h 11.3 km/h 85% 0.0 mm
18:54 13.9 °C 11.4 °C 1006.9 hPa SO 6.2 km/h 11.3 km/h 85% 0.0 mm
18:59 13.9 °C 11.3 °C 1006.6 hPa SSO 5.8 km/h 8 km/h 84.5% 0.0 mm
19:04 13.9 °C 11.2 °C 1006.6 hPa SSO 5 km/h 13 km/h 84% 0.0 mm
19:09 13.9 °C 11.3 °C 1006.8 hPa Sur 4.7 km/h 13 km/h 84.5% 0.0 mm
19:14 13.9 °C 11.4 °C 1006.8 hPa SSO 6.2 km/h 13 km/h 84.6% 0.0 mm
19:19 13.8 °C 11.3 °C 1006.8 hPa OSO 6.9 km/h 14 km/h 84.8% 0.0 mm
19:24 13.8 °C 11.2 °C 1006.8 hPa SO 7.9 km/h 14.8 km/h 84% 0.0 mm
19:29 13.8 °C 11.1 °C 1006.2 hPa SSO 8.4 km/h 18.5 km/h 83.9% 0.0 mm
19:34 13.8 °C 11 °C 1006.2 hPa SO 8.6 km/h 19.3 km/h 83.3% 0.0 mm
19:39 13.9 °C 11.1 °C 1006.2 hPa SSO 8.7 km/h 18.5 km/h 83% 0.0 mm
19:44 13.9 °C 11.1 °C 1006.1 hPa SSO 8.7 km/h 19.3 km/h 83% 0.0 mm
19:49 13.9 °C 11.1 °C 1006.1 hPa SSO 8.7 km/h 16.4 km/h 83% 0.0 mm
19:54 13.9 °C 11.2 °C 1006.6 hPa Sur 9.8 km/h 16.7 km/h 83.7% 0.0 mm
19:59 13.9 °C 11.2 °C 1006.6 hPa SSO 10.3 km/h 16.7 km/h 84% 0.0 mm
20:04 13.8 °C 11.2 °C 1006.6 hPa SSE 10.1 km/h 16.1 km/h 84.2% 0.0 mm
20:09 13.8 °C 11.3 °C 1006.6 hPa Sur 10 km/h 12.9 km/h 85% 0.0 mm
20:14 13.8 °C 11.4 °C 1006.2 hPa Sur 7.6 km/h 11.3 km/h 85.5% 0.0 mm
20:19 13.7 °C 11.4 °C 1006.2 hPa Sur 6.5 km/h 9.7 km/h 86% 0.0 mm
20:24 13.7 °C 11.4 °C 1006.5 hPa Sur 6.5 km/h 13 km/h 86% 0.0 mm
20:29 13.7 °C 11.5 °C 1006.5 hPa SSO 6.5 km/h 12.9 km/h 86.8% 0.0 mm
20:34 13.7 °C 11.6 °C 1006.5 hPa SO 7.2 km/h 13.7 km/h 87% 0.0 mm
20:39 13.7 °C 11.5 °C 1006.5 hPa OSO 7.6 km/h 14.8 km/h 86.6% 0.0 mm
20:44 13.7 °C 11.3 °C 1006.3 hPa SO 7.6 km/h 17.2 km/h 85.5% 0.0 mm
20:49 13.8 °C 11.3 °C 1006.3 hPa SSO 7.6 km/h 17.7 km/h 85% 0.0 mm
20:54 13.8 °C 11.2 °C 1006.5 hPa SSO 9.2 km/h 18.3 km/h 84.1% 0.0 mm
20:59 13.8 °C 11.2 °C 1006.5 hPa SSO 10 km/h 20.9 km/h 84% 0.0 mm
21:04 13.8 °C 11.2 °C 1006.5 hPa SSO 10 km/h 20.9 km/h 84.1% 0.0 mm
21:09 13.7 °C 11.1 °C 1006.8 hPa Sur 10 km/h 15.6 km/h 84.1% 0.0 mm
21:14 13.7 °C 10.9 °C 1006.8 hPa SSO 8.9 km/h 16.1 km/h 83.2% 0.0 mm
21:19 13.7 °C 10.8 °C 1006.8 hPa Sur 8.4 km/h 11.3 km/h 82.7% 0.0 mm
21:24 13.7 °C 10.6 °C 1006.9 hPa SSO 7.8 km/h 13 km/h 81.8% 0.0 mm
21:29 13.7 °C 10.5 °C 1006.9 hPa SO 7.6 km/h 13 km/h 81% 0.0 mm
21:34 13.7 °C 10.5 °C 1006.9 hPa OSO 6.3 km/h 9.7 km/h 81% 0.0 mm
21:39 13.7 °C 10.5 °C 1007.0 hPa SO 5.8 km/h 10 km/h 81% 0.0 mm
21:44 13.6 °C 10.4 °C 1007.0 hPa SSO 5.8 km/h 13.7 km/h 80.8% 0.0 mm
21:49 13.6 °C 10.4 °C 1007.0 hPa SO 5.8 km/h 14.5 km/h 81% 0.0 mm
21:54 13.6 °C 10.6 °C 1007.1 hPa SO 6.5 km/h 12.9 km/h 81.9% 0.0 mm
21:59 13.6 °C 10.7 °C 1007.1 hPa SO 6.9 km/h 14 km/h 82.6% 0.0 mm
22:04 13.5 °C 10.8 °C 1007.1 hPa OSO 7.9 km/h 14.8 km/h 83.4% 0.0 mm
22:09 13.5 °C 10.8 °C 1007.1 hPa OSO 8.4 km/h 13.7 km/h 84.2% 0.0 mm
22:14 13.4 °C 10.9 °C 1007.0 hPa OSO 7.8 km/h 14.5 km/h 85% 0.0 mm
22:19 13.4 °C 11.1 °C 1007.0 hPa SSO 7.6 km/h 14.5 km/h 86% 0.0 mm
22:24 13.4 °C 11.2 °C 1007.0 hPa SSO 6.4 km/h 9.7 km/h 86.4% 0.0 mm
22:29 13.4 °C 11.3 °C 1007.0 hPa SSO 5.8 km/h 13 km/h 87% 0.0 mm
22:34 13.4 °C 11.3 °C 1007.0 hPa Sur 6.2 km/h 13 km/h 87% 0.0 mm
22:39 13.4 °C 11.3 °C 1007.0 hPa Sur 6.5 km/h 11.9 km/h 87% 0.0 mm
22:44 13.4 °C 11.3 °C 1007.0 hPa Sur 7.2 km/h 13 km/h 87% 0.0 mm
22:49 13.3 °C 11.2 °C 1007.0 hPa Sur 7.6 km/h 13 km/h 87.4% 0.0 mm
22:54 13.3 °C 11.3 °C 1007.2 hPa Sur 7.6 km/h 14.8 km/h 88% 0.0 mm
22:59 13.2 °C 11.3 °C 1007.2 hPa Sur 7.6 km/h 14.8 km/h 88% 0.0 mm
23:04 13.2 °C 11.3 °C 1007.2 hPa Sur 8.3 km/h 14.5 km/h 88% 0.0 mm
23:09 13.2 °C 11.3 °C 1007.2 hPa SSO 8.7 km/h 13 km/h 88% 0.0 mm
23:14 13.2 °C 11.3 °C 1007.1 hPa SSO 7.9 km/h 17.2 km/h 88% 0.0 mm
23:19 13.3 °C 11.3 °C 1007.1 hPa SSO 7.6 km/h 18.5 km/h 88% 0.0 mm
23:24 13.3 °C 11.3 °C 1007.1 hPa SSO 9.1 km/h 19.3 km/h 88% 0.0 mm
23:29 13.3 °C 11.3 °C 1007.1 hPa SSO 10 km/h 16.1 km/h 88% 0.0 mm
23:34 13.3 °C 11.3 °C 1007.1 hPa SSO 9.7 km/h 17.2 km/h 88% 0.0 mm
23:39 13.3 °C 11.5 °C 1007.1 hPa SSO 9.5 km/h 17.7 km/h 88.9% 0.0 mm
23:44 13.3 °C 11.5 °C 1007.0 hPa SSO 10 km/h 19 km/h 89% 0.0 mm
23:49 13.3 °C 11.5 °C 1007.0 hPa SSO 10.3 km/h 19.3 km/h 89% 0.0 mm
23:54 13.3 °C 11.5 °C 1007.1 hPa SO 9.2 km/h 19.3 km/h 89% 0.0 mm
23:59 13.4 °C 11.6 °C 1007.1 hPa SSO 8.7 km/h 14.5 km/h 89% 0.0 mm
Murcia-Puente Tocinos, España
Compliments of Weather Underground - 3 mb

La estación de MeteoMurcia.com, publica sus datos en los siguientes proyectos:

Weather Underground PWS IMURCIAP2 Meteoclimatic www.awekas.at

W3Counter
Web Analytics